sensor_id;sensor_type;location;lat;lon;timestamp;P1;durP1;ratioP1;P2;durP2;ratioP2
19187;SDS011;9726;52.198;8.792;2022-12-08T00:01:18;30.33;;;14.30;;
19187;SDS011;9726;52.198;8.792;2022-12-08T00:03:46;29.43;;;15.67;;
19187;SDS011;9726;52.198;8.792;2022-12-08T00:09:13;29.57;;;16.00;;
19187;SDS011;9726;52.198;8.792;2022-12-08T00:14:28;33.17;;;14.97;;
19187;SDS011;9726;52.198;8.792;2022-12-08T00:16:56;25.87;;;15.30;;
19187;SDS011;9726;52.198;8.792;2022-12-08T00:19:24;32.93;;;15.50;;
19187;SDS011;9726;52.198;8.792;2022-12-08T00:21:52;29.00;;;15.37;;
19187;SDS011;9726;52.198;8.792;2022-12-08T00:24:20;27.77;;;16.20;;
19187;SDS011;9726;52.198;8.792;2022-12-08T00:26:48;26.03;;;17.70;;
19187;SDS011;9726;52.198;8.792;2022-12-08T00:29:15;28.23;;;15.77;;
19187;SDS011;9726;52.198;8.792;2022-12-08T00:31:43;34.87;;;15.53;;
19187;SDS011;9726;52.198;8.792;2022-12-08T00:34:12;29.40;;;17.37;;
19187;SDS011;9726;52.198;8.792;2022-12-08T00:36:39;18.77;;;12.33;;
19187;SDS011;9726;52.198;8.792;2022-12-08T00:39:07;23.33;;;14.43;;
19187;SDS011;9726;52.198;8.792;2022-12-08T00:41:34;28.47;;;16.83;;
19187;SDS011;9726;52.198;8.792;2022-12-08T00:44:20;34.60;;;16.80;;
19187;SDS011;9726;52.198;8.792;2022-12-08T00:46:47;29.10;;;15.70;;
19187;SDS011;9726;52.198;8.792;2022-12-08T00:49:15;38.57;;;16.73;;
19187;SDS011;9726;52.198;8.792;2022-12-08T00:51:42;33.53;;;18.97;;
19187;SDS011;9726;52.198;8.792;2022-12-08T00:54:10;31.80;;;16.30;;
19187;SDS011;9726;52.198;8.792;2022-12-08T00:56:37;32.50;;;16.77;;
19187;SDS011;9726;52.198;8.792;2022-12-08T00:59:05;30.13;;;16.10;;
19187;SDS011;9726;52.198;8.792;2022-12-08T01:01:33;23.30;;;13.07;;
19187;SDS011;9726;52.198;8.792;2022-12-08T01:04:05;27.00;;;15.50;;
19187;SDS011;9726;52.198;8.792;2022-12-08T01:06:35;32.73;;;14.80;;
19187;SDS011;9726;52.198;8.792;2022-12-08T01:09:03;21.70;;;13.83;;
19187;SDS011;9726;52.198;8.792;2022-12-08T01:11:31;32.50;;;18.77;;
19187;SDS011;9726;52.198;8.792;2022-12-08T01:13:58;27.60;;;16.27;;
19187;SDS011;9726;52.198;8.792;2022-12-08T01:16:27;29.40;;;15.90;;
19187;SDS011;9726;52.198;8.792;2022-12-08T01:18:55;28.73;;;15.33;;
19187;SDS011;9726;52.198;8.792;2022-12-08T01:21:23;23.90;;;14.97;;
19187;SDS011;9726;52.198;8.792;2022-12-08T01:23:52;28.40;;;16.87;;
19187;SDS011;9726;52.198;8.792;2022-12-08T01:26:19;34.60;;;16.87;;
19187;SDS011;9726;52.198;8.792;2022-12-08T01:28:46;24.23;;;14.90;;
19187;SDS011;9726;52.198;8.792;2022-12-08T01:31:16;25.40;;;15.33;;
19187;SDS011;9726;52.198;8.792;2022-12-08T01:33:44;24.40;;;15.13;;
19187;SDS011;9726;52.198;8.792;2022-12-08T01:36:17;26.80;;;16.30;;
19187;SDS011;9726;52.198;8.792;2022-12-08T01:38:45;28.50;;;17.10;;
19187;SDS011;9726;52.198;8.792;2022-12-08T01:41:16;34.47;;;17.07;;
19187;SDS011;9726;52.198;8.792;2022-12-08T01:46:33;33.73;;;17.80;;
19187;SDS011;9726;52.198;8.792;2022-12-08T01:49:14;37.30;;;18.53;;
19187;SDS011;9726;52.198;8.792;2022-12-08T01:51:59;33.47;;;17.53;;
19187;SDS011;9726;52.198;8.792;2022-12-08T01:54:35;35.70;;;19.17;;
19187;SDS011;9726;52.198;8.792;2022-12-08T01:57:05;36.57;;;18.50;;
19187;SDS011;9726;52.198;8.792;2022-12-08T01:59:40;38.77;;;18.43;;
19187;SDS011;9726;52.198;8.792;2022-12-08T02:02:09;41.93;;;18.97;;
19187;SDS011;9726;52.198;8.792;2022-12-08T02:04:37;31.97;;;18.27;;
19187;SDS011;9726;52.198;8.792;2022-12-08T02:07:04;41.43;;;19.27;;
19187;SDS011;9726;52.198;8.792;2022-12-08T02:09:34;47.47;;;19.77;;
19187;SDS011;9726;52.198;8.792;2022-12-08T02:12:01;30.67;;;19.73;;
19187;SDS011;9726;52.198;8.792;2022-12-08T02:14:29;38.07;;;18.43;;
19187;SDS011;9726;52.198;8.792;2022-12-08T02:17:18;36.50;;;18.83;;
19187;SDS011;9726;52.198;8.792;2022-12-08T02:22:53;35.33;;;18.70;;
19187;SDS011;9726;52.198;8.792;2022-12-08T02:25:30;37.17;;;18.77;;
19187;SDS011;9726;52.198;8.792;2022-12-08T02:31:01;35.17;;;19.87;;
19187;SDS011;9726;52.198;8.792;2022-12-08T02:39:10;37.93;;;20.37;;
19187;SDS011;9726;52.198;8.792;2022-12-08T02:47:04;40.20;;;22.47;;
19187;SDS011;9726;52.198;8.792;2022-12-08T02:49:33;51.17;;;23.03;;
19187;SDS011;9726;52.198;8.792;2022-12-08T02:52:05;44.27;;;23.70;;
19187;SDS011;9726;52.198;8.792;2022-12-08T02:54:32;41.47;;;21.97;;
19187;SDS011;9726;52.198;8.792;2022-12-08T02:59:50;44.90;;;23.03;;
19187;SDS011;9726;52.198;8.792;2022-12-08T03:05:11;42.37;;;23.03;;
19187;SDS011;9726;52.198;8.792;2022-12-08T03:07:44;37.73;;;20.20;;
19187;SDS011;9726;52.198;8.792;2022-12-08T03:13:16;31.40;;;16.43;;
19187;SDS011;9726;52.198;8.792;2022-12-08T03:15:47;31.20;;;19.47;;
19187;SDS011;9726;52.198;8.792;2022-12-08T03:18:16;41.43;;;20.07;;
19187;SDS011;9726;52.198;8.792;2022-12-08T03:20:44;22.93;;;13.80;;
19187;SDS011;9726;52.198;8.792;2022-12-08T03:23:13;32.93;;;17.60;;
19187;SDS011;9726;52.198;8.792;2022-12-08T03:25:49;30.57;;;17.17;;
19187;SDS011;9726;52.198;8.792;2022-12-08T03:28:19;35.23;;;18.37;;
19187;SDS011;9726;52.198;8.792;2022-12-08T03:30:47;33.60;;;17.13;;
19187;SDS011;9726;52.198;8.792;2022-12-08T03:33:21;36.67;;;17.27;;
19187;SDS011;9726;52.198;8.792;2022-12-08T03:35:49;34.13;;;17.20;;
19187;SDS011;9726;52.198;8.792;2022-12-08T03:38:17;20.73;;;12.50;;
19187;SDS011;9726;52.198;8.792;2022-12-08T03:40:44;38.80;;;18.47;;
19187;SDS011;9726;52.198;8.792;2022-12-08T03:43:35;27.33;;;15.10;;
19187;SDS011;9726;52.198;8.792;2022-12-08T03:46:02;28.90;;;17.03;;
19187;SDS011;9726;52.198;8.792;2022-12-08T03:48:29;33.27;;;17.60;;
19187;SDS011;9726;52.198;8.792;2022-12-08T03:50:57;20.77;;;12.40;;
19187;SDS011;9726;52.198;8.792;2022-12-08T03:53:24;27.23;;;15.93;;
19187;SDS011;9726;52.198;8.792;2022-12-08T03:55:52;29.63;;;17.73;;
19187;SDS011;9726;52.198;8.792;2022-12-08T03:58:19;25.40;;;16.70;;
19187;SDS011;9726;52.198;8.792;2022-12-08T04:00:46;40.13;;;18.43;;
19187;SDS011;9726;52.198;8.792;2022-12-08T04:03:14;24.80;;;14.70;;
19187;SDS011;9726;52.198;8.792;2022-12-08T04:05:41;29.53;;;15.63;;
19187;SDS011;9726;52.198;8.792;2022-12-08T04:08:09;27.73;;;16.37;;
19187;SDS011;9726;52.198;8.792;2022-12-08T04:10:36;31.63;;;16.37;;
19187;SDS011;9726;52.198;8.792;2022-12-08T04:13:03;27.93;;;17.17;;
19187;SDS011;9726;52.198;8.792;2022-12-08T04:15:30;28.93;;;17.03;;
19187;SDS011;9726;52.198;8.792;2022-12-08T04:17:58;32.30;;;15.47;;
19187;SDS011;9726;52.198;8.792;2022-12-08T04:20:25;28.23;;;16.13;;
19187;SDS011;9726;52.198;8.792;2022-12-08T04:22:52;28.23;;;16.73;;
19187;SDS011;9726;52.198;8.792;2022-12-08T04:25:20;23.90;;;14.43;;
19187;SDS011;9726;52.198;8.792;2022-12-08T04:27:47;21.50;;;13.13;;
19187;SDS011;9726;52.198;8.792;2022-12-08T04:30:14;32.27;;;15.83;;
19187;SDS011;9726;52.198;8.792;2022-12-08T04:32:42;28.60;;;15.70;;
19187;SDS011;9726;52.198;8.792;2022-12-08T04:35:13;26.10;;;14.20;;
19187;SDS011;9726;52.198;8.792;2022-12-08T04:37:40;27.60;;;15.50;;
19187;SDS011;9726;52.198;8.792;2022-12-08T04:40:08;26.23;;;13.43;;
19187;SDS011;9726;52.198;8.792;2022-12-08T04:42:36;27.83;;;15.23;;
19187;SDS011;9726;52.198;8.792;2022-12-08T04:45:03;28.93;;;16.73;;
19187;SDS011;9726;52.198;8.792;2022-12-08T04:47:31;26.63;;;16.07;;
19187;SDS011;9726;52.198;8.792;2022-12-08T04:49:58;25.33;;;15.40;;
19187;SDS011;9726;52.198;8.792;2022-12-08T04:52:26;27.20;;;16.67;;
19187;SDS011;9726;52.198;8.792;2022-12-08T04:54:53;27.00;;;16.27;;
19187;SDS011;9726;52.198;8.792;2022-12-08T04:57:20;28.67;;;16.10;;
19187;SDS011;9726;52.198;8.792;2022-12-08T04:59:48;23.33;;;13.27;;
19187;SDS011;9726;52.198;8.792;2022-12-08T05:02:15;22.80;;;14.77;;
19187;SDS011;9726;52.198;8.792;2022-12-08T05:04:43;17.37;;;11.27;;
19187;SDS011;9726;52.198;8.792;2022-12-08T05:07:10;25.17;;;18.25;;
19187;SDS011;9726;52.198;8.792;2022-12-08T05:09:37;22.23;;;13.00;;
19187;SDS011;9726;52.198;8.792;2022-12-08T05:12:04;29.10;;;16.17;;
19187;SDS011;9726;52.198;8.792;2022-12-08T05:14:32;21.00;;;12.70;;
19187;SDS011;9726;52.198;8.792;2022-12-08T05:16:59;22.43;;;14.13;;
19187;SDS011;9726;52.198;8.792;2022-12-08T05:19:34;22.20;;;14.40;;
19187;SDS011;9726;52.198;8.792;2022-12-08T05:22:02;23.63;;;15.87;;
19187;SDS011;9726;52.198;8.792;2022-12-08T05:24:29;26.47;;;15.50;;
19187;SDS011;9726;52.198;8.792;2022-12-08T05:26:56;22.63;;;15.30;;
19187;SDS011;9726;52.198;8.792;2022-12-08T05:29:23;30.13;;;18.63;;
19187;SDS011;9726;52.198;8.792;2022-12-08T05:31:51;29.17;;;17.77;;
19187;SDS011;9726;52.198;8.792;2022-12-08T05:34:18;29.63;;;18.33;;
19187;SDS011;9726;52.198;8.792;2022-12-08T05:36:46;39.57;;;21.63;;
19187;SDS011;9726;52.198;8.792;2022-12-08T05:39:13;31.90;;;20.83;;
19187;SDS011;9726;52.198;8.792;2022-12-08T05:41:40;41.95;;;28.52;;
19187;SDS011;9726;52.198;8.792;2022-12-08T05:44:08;35.33;;;20.73;;
19187;SDS011;9726;52.198;8.792;2022-12-08T05:46:35;42.63;;;22.30;;
19187;SDS011;9726;52.198;8.792;2022-12-08T05:49:02;41.17;;;21.97;;
19187;SDS011;9726;52.198;8.792;2022-12-08T05:51:30;30.37;;;19.43;;
19187;SDS011;9726;52.198;8.792;2022-12-08T05:53:57;41.27;;;22.73;;
19187;SDS011;9726;52.198;8.792;2022-12-08T05:56:24;39.70;;;22.33;;
19187;SDS011;9726;52.198;8.792;2022-12-08T05:58:52;35.77;;;22.73;;
19187;SDS011;9726;52.198;8.792;2022-12-08T06:01:29;36.63;;;22.47;;
19187;SDS011;9726;52.198;8.792;2022-12-08T06:03:57;31.83;;;20.37;;
19187;SDS011;9726;52.198;8.792;2022-12-08T06:06:25;38.27;;;22.13;;
19187;SDS011;9726;52.198;8.792;2022-12-08T06:08:53;37.00;;;20.70;;
19187;SDS011;9726;52.198;8.792;2022-12-08T06:11:21;37.00;;;22.93;;
19187;SDS011;9726;52.198;8.792;2022-12-08T06:13:49;37.53;;;21.67;;
19187;SDS011;9726;52.198;8.792;2022-12-08T06:16:16;40.70;;;22.23;;
19187;SDS011;9726;52.198;8.792;2022-12-08T06:18:44;34.23;;;20.37;;
19187;SDS011;9726;52.198;8.792;2022-12-08T06:21:12;32.30;;;20.83;;
19187;SDS011;9726;52.198;8.792;2022-12-08T06:23:40;36.33;;;21.00;;
19187;SDS011;9726;52.198;8.792;2022-12-08T06:26:10;29.73;;;16.53;;
19187;SDS011;9726;52.198;8.792;2022-12-08T06:28:38;35.13;;;20.20;;
19187;SDS011;9726;52.198;8.792;2022-12-08T06:31:10;36.87;;;20.90;;
19187;SDS011;9726;52.198;8.792;2022-12-08T06:33:37;27.60;;;15.50;;
19187;SDS011;9726;52.198;8.792;2022-12-08T06:36:05;26.30;;;14.97;;
19187;SDS011;9726;52.198;8.792;2022-12-08T06:38:33;31.53;;;19.83;;
19187;SDS011;9726;52.198;8.792;2022-12-08T06:41:07;34.87;;;20.57;;
19187;SDS011;9726;52.198;8.792;2022-12-08T06:43:34;26.13;;;16.03;;
19187;SDS011;9726;52.198;8.792;2022-12-08T06:46:03;29.47;;;18.93;;
19187;SDS011;9726;52.198;8.792;2022-12-08T06:48:31;32.63;;;19.60;;
19187;SDS011;9726;52.198;8.792;2022-12-08T06:51:08;29.43;;;19.53;;
19187;SDS011;9726;52.198;8.792;2022-12-08T06:53:36;28.13;;;18.50;;
19187;SDS011;9726;52.198;8.792;2022-12-08T06:56:03;29.23;;;19.10;;
19187;SDS011;9726;52.198;8.792;2022-12-08T06:58:31;30.43;;;18.20;;
19187;SDS011;9726;52.198;8.792;2022-12-08T07:01:08;34.03;;;20.97;;
19187;SDS011;9726;52.198;8.792;2022-12-08T07:03:37;21.80;;;10.93;;
19187;SDS011;9726;52.198;8.792;2022-12-08T07:06:05;30.30;;;19.87;;
19187;SDS011;9726;52.198;8.792;2022-12-08T07:08:32;39.47;;;23.20;;
19187;SDS011;9726;52.198;8.792;2022-12-08T07:11:07;37.23;;;23.73;;
19187;SDS011;9726;52.198;8.792;2022-12-08T07:13:35;35.13;;;21.83;;
19187;SDS011;9726;52.198;8.792;2022-12-08T07:16:09;37.57;;;20.17;;
19187;SDS011;9726;52.198;8.792;2022-12-08T07:18:36;33.13;;;18.40;;
19187;SDS011;9726;52.198;8.792;2022-12-08T07:21:10;33.77;;;21.57;;
19187;SDS011;9726;52.198;8.792;2022-12-08T07:23:40;40.17;;;23.73;;
19187;SDS011;9726;52.198;8.792;2022-12-08T07:26:09;40.67;;;22.93;;
19187;SDS011;9726;52.198;8.792;2022-12-08T07:28:42;36.40;;;19.77;;
19187;SDS011;9726;52.198;8.792;2022-12-08T07:31:16;39.37;;;22.40;;
19187;SDS011;9726;52.198;8.792;2022-12-08T07:33:44;39.40;;;24.03;;
19187;SDS011;9726;52.198;8.792;2022-12-08T07:36:11;35.07;;;21.03;;
19187;SDS011;9726;52.198;8.792;2022-12-08T07:38:39;39.10;;;22.30;;
19187;SDS011;9726;52.198;8.792;2022-12-08T07:41:10;37.23;;;23.50;;
19187;SDS011;9726;52.198;8.792;2022-12-08T07:43:37;39.73;;;20.57;;
19187;SDS011;9726;52.198;8.792;2022-12-08T07:46:05;39.27;;;21.67;;
19187;SDS011;9726;52.198;8.792;2022-12-08T07:48:32;37.67;;;17.40;;
19187;SDS011;9726;52.198;8.792;2022-12-08T07:51:00;30.90;;;15.70;;
19187;SDS011;9726;52.198;8.792;2022-12-08T07:53:27;32.77;;;19.67;;
19187;SDS011;9726;52.198;8.792;2022-12-08T07:55:54;29.97;;;19.47;;
19187;SDS011;9726;52.198;8.792;2022-12-08T07:58:22;30.47;;;19.23;;
19187;SDS011;9726;52.198;8.792;2022-12-08T08:00:50;27.30;;;17.27;;
19187;SDS011;9726;52.198;8.792;2022-12-08T08:03:17;41.53;;;19.60;;
19187;SDS011;9726;52.198;8.792;2022-12-08T08:05:44;32.83;;;18.73;;
19187;SDS011;9726;52.198;8.792;2022-12-08T08:08:14;26.80;;;16.67;;
19187;SDS011;9726;52.198;8.792;2022-12-08T08:10:42;36.07;;;21.13;;
19187;SDS011;9726;52.198;8.792;2022-12-08T08:13:10;27.90;;;17.53;;
19187;SDS011;9726;52.198;8.792;2022-12-08T08:15:37;21.33;;;12.93;;
19187;SDS011;9726;52.198;8.792;2022-12-08T08:18:05;28.53;;;15.77;;
19187;SDS011;9726;52.198;8.792;2022-12-08T08:20:33;25.60;;;15.30;;
19187;SDS011;9726;52.198;8.792;2022-12-08T08:23:00;25.70;;;15.47;;
19187;SDS011;9726;52.198;8.792;2022-12-08T08:25:28;26.37;;;16.23;;
19187;SDS011;9726;52.198;8.792;2022-12-08T08:27:55;20.87;;;13.23;;
19187;SDS011;9726;52.198;8.792;2022-12-08T08:30:22;26.23;;;15.97;;
19187;SDS011;9726;52.198;8.792;2022-12-08T08:32:50;28.90;;;16.80;;
19187;SDS011;9726;52.198;8.792;2022-12-08T08:35:17;26.53;;;17.40;;
19187;SDS011;9726;52.198;8.792;2022-12-08T08:37:45;25.53;;;15.47;;
19187;SDS011;9726;52.198;8.792;2022-12-08T08:40:15;31.00;;;17.03;;
19187;SDS011;9726;52.198;8.792;2022-12-08T08:42:42;29.03;;;18.03;;
19187;SDS011;9726;52.198;8.792;2022-12-08T08:45:10;33.70;;;19.70;;
19187;SDS011;9726;52.198;8.792;2022-12-08T08:47:37;32.30;;;19.30;;
19187;SDS011;9726;52.198;8.792;2022-12-08T08:50:05;33.67;;;19.77;;
19187;SDS011;9726;52.198;8.792;2022-12-08T08:52:33;29.93;;;16.80;;
19187;SDS011;9726;52.198;8.792;2022-12-08T08:55:00;34.30;;;20.37;;
19187;SDS011;9726;52.198;8.792;2022-12-08T08:57:28;36.30;;;19.50;;
19187;SDS011;9726;52.198;8.792;2022-12-08T08:59:55;29.27;;;19.27;;
19187;SDS011;9726;52.198;8.792;2022-12-08T09:02:22;31.73;;;19.40;;
19187;SDS011;9726;52.198;8.792;2022-12-08T09:04:50;31.90;;;19.53;;
19187;SDS011;9726;52.198;8.792;2022-12-08T09:07:18;32.23;;;18.60;;
19187;SDS011;9726;52.198;8.792;2022-12-08T09:09:45;31.70;;;19.10;;
19187;SDS011;9726;52.198;8.792;2022-12-08T09:12:12;32.00;;;18.83;;
19187;SDS011;9726;52.198;8.792;2022-12-08T09:14:39;32.33;;;18.97;;
19187;SDS011;9726;52.198;8.792;2022-12-08T09:17:07;31.20;;;18.43;;
19187;SDS011;9726;52.198;8.792;2022-12-08T09:19:34;33.30;;;19.17;;
19187;SDS011;9726;52.198;8.792;2022-12-08T09:22:01;30.03;;;18.50;;
19187;SDS011;9726;52.198;8.792;2022-12-08T09:24:29;30.17;;;18.80;;
19187;SDS011;9726;52.198;8.792;2022-12-08T09:26:56;35.60;;;17.43;;
19187;SDS011;9726;52.198;8.792;2022-12-08T09:29:23;29.70;;;18.43;;
19187;SDS011;9726;52.198;8.792;2022-12-08T09:31:57;31.33;;;19.43;;
19187;SDS011;9726;52.198;8.792;2022-12-08T09:34:25;31.27;;;18.70;;
19187;SDS011;9726;52.198;8.792;2022-12-08T09:36:52;73.47;;;19.43;;
19187;SDS011;9726;52.198;8.792;2022-12-08T09:39:19;27.50;;;15.33;;
19187;SDS011;9726;52.198;8.792;2022-12-08T09:41:52;25.57;;;15.87;;
19187;SDS011;9726;52.198;8.792;2022-12-08T09:47:11;19.63;;;12.83;;
19187;SDS011;9726;52.198;8.792;2022-12-08T09:49:41;19.17;;;13.40;;
19187;SDS011;9726;52.198;8.792;2022-12-08T09:52:17;19.90;;;13.17;;
19187;SDS011;9726;52.198;8.792;2022-12-08T09:54:46;22.67;;;15.53;;
19187;SDS011;9726;52.198;8.792;2022-12-08T09:57:14;23.10;;;14.73;;
19187;SDS011;9726;52.198;8.792;2022-12-08T09:59:43;23.10;;;15.13;;
19187;SDS011;9726;52.198;8.792;2022-12-08T10:02:22;24.73;;;14.37;;
19187;SDS011;9726;52.198;8.792;2022-12-08T10:04:50;21.63;;;14.17;;
19187;SDS011;9726;52.198;8.792;2022-12-08T10:10:53;23.57;;;15.60;;
19187;SDS011;9726;52.198;8.792;2022-12-08T10:12:51;25.03;;;15.63;;
19187;SDS011;9726;52.198;8.792;2022-12-08T10:18:03;20.03;;;12.40;;
19187;SDS011;9726;52.198;8.792;2022-12-08T10:20:36;17.37;;;11.23;;
19187;SDS011;9726;52.198;8.792;2022-12-08T10:25:51;21.50;;;14.13;;
19187;SDS011;9726;52.198;8.792;2022-12-08T10:28:21;17.83;;;11.57;;
19187;SDS011;9726;52.198;8.792;2022-12-08T10:30:49;14.10;;;10.10;;
19187;SDS011;9726;52.198;8.792;2022-12-08T10:33:17;12.77;;;9.40;;
19187;SDS011;9726;52.198;8.792;2022-12-08T10:35:47;18.77;;;11.73;;
19187;SDS011;9726;52.198;8.792;2022-12-08T10:38:16;21.33;;;13.13;;
19187;SDS011;9726;52.198;8.792;2022-12-08T10:40:44;19.27;;;12.13;;
19187;SDS011;9726;52.198;8.792;2022-12-08T10:43:13;21.63;;;12.03;;
19187;SDS011;9726;52.198;8.792;2022-12-08T10:45:41;18.70;;;12.37;;
19187;SDS011;9726;52.198;8.792;2022-12-08T10:48:13;23.10;;;13.73;;
19187;SDS011;9726;52.198;8.792;2022-12-08T10:53:13;20.93;;;13.67;;
19187;SDS011;9726;52.198;8.792;2022-12-08T10:55:43;18.80;;;11.93;;
19187;SDS011;9726;52.198;8.792;2022-12-08T11:00:51;23.37;;;12.67;;
19187;SDS011;9726;52.198;8.792;2022-12-08T11:03:21;23.00;;;12.90;;
19187;SDS011;9726;52.198;8.792;2022-12-08T11:05:54;19.23;;;10.83;;
19187;SDS011;9726;52.198;8.792;2022-12-08T11:08:22;18.33;;;12.27;;
19187;SDS011;9726;52.198;8.792;2022-12-08T11:10:50;18.20;;;11.57;;
19187;SDS011;9726;52.198;8.792;2022-12-08T11:13:19;17.73;;;11.53;;
19187;SDS011;9726;52.198;8.792;2022-12-08T11:15:47;21.17;;;11.57;;
19187;SDS011;9726;52.198;8.792;2022-12-08T11:18:23;17.20;;;11.17;;
19187;SDS011;9726;52.198;8.792;2022-12-08T11:20:58;18.23;;;12.23;;
19187;SDS011;9726;52.198;8.792;2022-12-08T11:23:26;18.00;;;11.90;;
19187;SDS011;9726;52.198;8.792;2022-12-08T11:25:55;18.77;;;12.70;;
19187;SDS011;9726;52.198;8.792;2022-12-08T11:28:24;18.93;;;13.07;;
19187;SDS011;9726;52.198;8.792;2022-12-08T11:30:53;14.87;;;11.50;;
19187;SDS011;9726;52.198;8.792;2022-12-08T11:33:26;16.10;;;11.13;;
19187;SDS011;9726;52.198;8.792;2022-12-08T11:38:30;16.83;;;11.23;;
19187;SDS011;9726;52.198;8.792;2022-12-08T11:41:41;17.57;;;11.73;;
19187;SDS011;9726;52.198;8.792;2022-12-08T11:46:22;15.53;;;10.70;;
19187;SDS011;9726;52.198;8.792;2022-12-08T11:48:55;13.47;;;9.57;;
19187;SDS011;9726;52.198;8.792;2022-12-08T11:56:33;19.77;;;11.83;;
19187;SDS011;9726;52.198;8.792;2022-12-08T11:59:08;15.90;;;10.47;;
19187;SDS011;9726;52.198;8.792;2022-12-08T12:01:36;14.00;;;9.50;;
19187;SDS011;9726;52.198;8.792;2022-12-08T12:04:14;13.27;;;8.57;;
19187;SDS011;9726;52.198;8.792;2022-12-08T12:06:56;15.73;;;9.63;;
19187;SDS011;9726;52.198;8.792;2022-12-08T12:12:19;12.70;;;8.50;;
19187;SDS011;9726;52.198;8.792;2022-12-08T12:23:01;13.07;;;9.23;;
19187;SDS011;9726;52.198;8.792;2022-12-08T12:25:31;13.97;;;9.67;;
19187;SDS011;9726;52.198;8.792;2022-12-08T12:28:01;13.67;;;8.70;;
19187;SDS011;9726;52.198;8.792;2022-12-08T12:30:47;14.33;;;10.13;;
19187;SDS011;9726;52.198;8.792;2022-12-08T12:33:16;11.87;;;8.07;;
19187;SDS011;9726;52.198;8.792;2022-12-08T12:35:44;16.97;;;10.23;;
19187;SDS011;9726;52.198;8.792;2022-12-08T12:38:23;14.30;;;9.10;;
19187;SDS011;9726;52.198;8.792;2022-12-08T12:41:10;11.70;;;8.23;;
19187;SDS011;9726;52.198;8.792;2022-12-08T12:43:39;12.47;;;7.87;;
19187;SDS011;9726;52.198;8.792;2022-12-08T12:48:50;12.93;;;7.47;;
19187;SDS011;9726;52.198;8.792;2022-12-08T12:54:23;13.27;;;8.50;;
19187;SDS011;9726;52.198;8.792;2022-12-08T13:01:55;15.30;;;8.40;;
19187;SDS011;9726;52.198;8.792;2022-12-08T13:04:33;13.00;;;9.20;;
19187;SDS011;9726;52.198;8.792;2022-12-08T13:07:01;15.20;;;9.53;;
19187;SDS011;9726;52.198;8.792;2022-12-08T13:09:32;12.30;;;8.57;;
19187;SDS011;9726;52.198;8.792;2022-12-08T13:12:11;16.03;;;8.70;;
19187;SDS011;9726;52.198;8.792;2022-12-08T13:14:45;16.73;;;8.80;;
19187;SDS011;9726;52.198;8.792;2022-12-08T13:17:16;13.87;;;9.30;;
19187;SDS011;9726;52.198;8.792;2022-12-08T13:19:46;12.43;;;8.13;;
19187;SDS011;9726;52.198;8.792;2022-12-08T13:27:53;16.30;;;7.60;;
19187;SDS011;9726;52.198;8.792;2022-12-08T13:33:25;11.07;;;7.00;;
19187;SDS011;9726;52.198;8.792;2022-12-08T13:36:00;10.07;;;5.80;;
19187;SDS011;9726;52.198;8.792;2022-12-08T13:38:30;12.30;;;6.73;;
19187;SDS011;9726;52.198;8.792;2022-12-08T13:40:59;13.30;;;6.57;;
19187;SDS011;9726;52.198;8.792;2022-12-08T13:43:44;7.53;;;5.63;;
19187;SDS011;9726;52.198;8.792;2022-12-08T13:46:36;7.97;;;5.20;;
19187;SDS011;9726;52.198;8.792;2022-12-08T13:49:27;8.93;;;5.27;;
19187;SDS011;9726;52.198;8.792;2022-12-08T13:52:17;7.83;;;5.63;;
19187;SDS011;9726;52.198;8.792;2022-12-08T13:55:12;7.53;;;4.63;;
19187;SDS011;9726;52.198;8.792;2022-12-08T13:58:01;8.47;;;5.33;;
19187;SDS011;9726;52.198;8.792;2022-12-08T14:00:28;7.97;;;5.00;;
19187;SDS011;9726;52.198;8.792;2022-12-08T14:02:57;11.20;;;4.50;;
19187;SDS011;9726;52.198;8.792;2022-12-08T14:05:26;5.27;;;4.00;;
19187;SDS011;9726;52.198;8.792;2022-12-08T14:08:18;10.10;;;5.17;;
19187;SDS011;9726;52.198;8.792;2022-12-08T14:11:06;8.40;;;5.50;;
19187;SDS011;9726;52.198;8.792;2022-12-08T14:13:34;8.73;;;5.73;;
19187;SDS011;9726;52.198;8.792;2022-12-08T14:16:01;12.20;;;6.00;;
19187;SDS011;9726;52.198;8.792;2022-12-08T14:18:29;8.33;;;6.60;;
19187;SDS011;9726;52.198;8.792;2022-12-08T14:21:01;8.67;;;5.73;;
19187;SDS011;9726;52.198;8.792;2022-12-08T14:23:49;10.93;;;6.53;;
19187;SDS011;9726;52.198;8.792;2022-12-08T14:26:16;9.67;;;6.00;;
19187;SDS011;9726;52.198;8.792;2022-12-08T14:28:44;9.40;;;6.97;;
19187;SDS011;9726;52.198;8.792;2022-12-08T14:31:11;12.67;;;7.43;;
19187;SDS011;9726;52.198;8.792;2022-12-08T14:33:40;12.90;;;7.30;;
19187;SDS011;9726;52.198;8.792;2022-12-08T14:36:08;14.67;;;7.03;;
19187;SDS011;9726;52.198;8.792;2022-12-08T14:38:37;11.63;;;7.83;;
19187;SDS011;9726;52.198;8.792;2022-12-08T14:41:06;10.77;;;7.03;;
19187;SDS011;9726;52.198;8.792;2022-12-08T14:43:34;16.10;;;7.13;;
19187;SDS011;9726;52.198;8.792;2022-12-08T14:46:17;15.33;;;7.77;;
19187;SDS011;9726;52.198;8.792;2022-12-08T14:48:45;11.83;;;6.67;;
19187;SDS011;9726;52.198;8.792;2022-12-08T14:56:16;17.40;;;8.50;;
19187;SDS011;9726;52.198;8.792;2022-12-08T14:58:45;19.80;;;8.00;;
19187;SDS011;9726;52.198;8.792;2022-12-08T15:01:14;15.20;;;7.80;;
19187;SDS011;9726;52.198;8.792;2022-12-08T15:03:43;18.17;;;8.83;;
19187;SDS011;9726;52.198;8.792;2022-12-08T15:06:16;14.50;;;7.97;;
19187;SDS011;9726;52.198;8.792;2022-12-08T15:08:50;19.23;;;8.73;;
19187;SDS011;9726;52.198;8.792;2022-12-08T15:11:23;20.63;;;8.53;;
19187;SDS011;9726;52.198;8.792;2022-12-08T15:13:52;12.03;;;7.57;;
19187;SDS011;9726;52.198;8.792;2022-12-08T15:21:31;14.90;;;8.13;;
19187;SDS011;9726;52.198;8.792;2022-12-08T15:24:01;17.50;;;8.33;;
19187;SDS011;9726;52.198;8.792;2022-12-08T15:26:29;12.13;;;7.60;;
19187;SDS011;9726;52.198;8.792;2022-12-08T15:29:08;16.37;;;9.27;;
19187;SDS011;9726;52.198;8.792;2022-12-08T15:31:36;19.83;;;8.20;;
19187;SDS011;9726;52.198;8.792;2022-12-08T15:34:04;17.67;;;9.50;;
19187;SDS011;9726;52.198;8.792;2022-12-08T15:36:31;13.70;;;8.63;;
19187;SDS011;9726;52.198;8.792;2022-12-08T15:38:59;14.97;;;8.97;;
19187;SDS011;9726;52.198;8.792;2022-12-08T15:41:26;15.50;;;9.17;;
19187;SDS011;9726;52.198;8.792;2022-12-08T15:43:53;17.93;;;10.00;;
19187;SDS011;9726;52.198;8.792;2022-12-08T15:46:21;16.40;;;9.57;;
19187;SDS011;9726;52.198;8.792;2022-12-08T15:48:48;17.23;;;9.63;;
19187;SDS011;9726;52.198;8.792;2022-12-08T15:51:23;18.13;;;10.33;;
19187;SDS011;9726;52.198;8.792;2022-12-08T15:53:50;15.60;;;10.53;;
19187;SDS011;9726;52.198;8.792;2022-12-08T15:56:18;15.77;;;9.33;;
19187;SDS011;9726;52.198;8.792;2022-12-08T15:58:54;17.93;;;9.63;;
19187;SDS011;9726;52.198;8.792;2022-12-08T16:01:23;17.23;;;10.57;;
19187;SDS011;9726;52.198;8.792;2022-12-08T16:03:51;14.77;;;9.87;;
19187;SDS011;9726;52.198;8.792;2022-12-08T16:06:39;14.00;;;8.57;;
19187;SDS011;9726;52.198;8.792;2022-12-08T16:11:55;16.47;;;9.37;;
19187;SDS011;9726;52.198;8.792;2022-12-08T16:14:41;14.83;;;9.67;;
19187;SDS011;9726;52.198;8.792;2022-12-08T16:17:32;15.00;;;9.13;;
19187;SDS011;9726;52.198;8.792;2022-12-08T16:20:00;15.77;;;8.90;;
19187;SDS011;9726;52.198;8.792;2022-12-08T16:22:29;16.93;;;10.33;;
19187;SDS011;9726;52.198;8.792;2022-12-08T16:25:17;15.30;;;9.60;;
19187;SDS011;9726;52.198;8.792;2022-12-08T16:27:48;20.43;;;10.77;;
19187;SDS011;9726;52.198;8.792;2022-12-08T16:30:27;15.73;;;10.00;;
19187;SDS011;9726;52.198;8.792;2022-12-08T16:32:54;17.37;;;10.10;;
19187;SDS011;9726;52.198;8.792;2022-12-08T16:35:21;15.73;;;10.63;;
19187;SDS011;9726;52.198;8.792;2022-12-08T16:37:49;17.07;;;10.47;;
19187;SDS011;9726;52.198;8.792;2022-12-08T16:40:17;21.70;;;10.20;;